CSN8877 ZSNJ-ZGKL
Flight info
| Callsign | CSN8877 |
|---|---|
| Flight time | 2h 39m |
| Altitude | 32099 |
| Route | DCT SUNBO W163 HFE W50 XSH W80 UDUMI W37 OLMIB W83 GOSMA R343 ONEMI ONE8W |
| Aircraft | MD82/M-SDFGIJ1RWY/S |
Departure
| Time | 2026-05-04 08:00 |
|---|---|
| Airport | Nanjing Lukou International Airport (ZSNJ) |
Arrival
| Time | 2026-05-04 10:39 |
|---|---|
| Airport | Guilin Liangjiang International Airport (ZGKL) |
| Time | Latitude | Longitude | Altitude | Speed | Heading |
|---|---|---|---|---|---|
| 2026-05-04 07:14 | 31.73033 | 118.87013 | 59 ft | 0 kts | 328° |
| 2026-05-04 07:16 | 31.73033 | 118.87014 | 59 ft | 0 kts | 328° |
| 2026-05-04 07:35 | 31.73032 | 118.87014 | 59 ft | 0 kts | 328° |
| 2026-05-04 07:46 | 31.73023 | 118.87021 | 55 ft | 4 kts | 328° |
| 2026-05-04 07:46 | 31.73000 | 118.87038 | 52 ft | 4 kts | 328° |
| 2026-05-04 07:46 | 31.72980 | 118.87053 | 53 ft | 3 kts | 329° |
| 2026-05-04 07:47 | 31.72959 | 118.87061 | 53 ft | 4 kts | 13° |
| 2026-05-04 07:47 | 31.72941 | 118.87046 | 55 ft | 4 kts | 52° |
| 2026-05-04 07:47 | 31.72931 | 118.87031 | 55 ft | 0 kts | 58° |
| 2026-05-04 07:50 | 31.72931 | 118.87030 | 55 ft | 0 kts | 58° |
| 2026-05-04 07:51 | 31.72931 | 118.87031 | 55 ft | 0 kts | 58° |
| 2026-05-04 07:51 | 31.72934 | 118.87036 | 55 ft | 1 kts | 58° |
| 2026-05-04 07:51 | 31.72941 | 118.87048 | 55 ft | 2 kts | 58° |
| 2026-05-04 07:51 | 31.72948 | 118.87061 | 55 ft | 0 kts | 58° |
| 2026-05-04 07:52 | 31.72949 | 118.87064 | 55 ft | 1 kts | 58° |
| 2026-05-04 07:52 | 31.72954 | 118.87074 | 53 ft | 2 kts | 58° |
| 2026-05-04 07:52 | 31.72964 | 118.87091 | 52 ft | 3 kts | 58° |
| 2026-05-04 07:52 | 31.72977 | 118.87116 | 51 ft | 4 kts | 58° |
| 2026-05-04 07:53 | 31.72995 | 118.87149 | 57 ft | 5 kts | 58° |
| 2026-05-04 07:54 | 31.73218 | 118.87567 | 54 ft | 12 kts | 57° |
| 2026-05-04 07:55 | 31.73263 | 118.87649 | 56 ft | 12 kts | 58° |
| 2026-05-04 07:55 | 31.73310 | 118.87737 | 56 ft | 13 kts | 57° |
| 2026-05-04 07:55 | 31.73339 | 118.87801 | 53 ft | 3 kts | 84° |
| 2026-05-04 07:55 | 31.73333 | 118.87822 | 57 ft | 3 kts | 122° |
| 2026-05-04 07:56 | 31.73318 | 118.87838 | 58 ft | 3 kts | 145° |
| 2026-05-04 07:56 | 31.73295 | 118.87856 | 59 ft | 4 kts | 147° |
| 2026-05-04 07:56 | 31.73268 | 118.87876 | 57 ft | 5 kts | 148° |
| 2026-05-04 07:56 | 31.73236 | 118.87900 | 59 ft | 6 kts | 148° |
| 2026-05-04 07:57 | 31.73199 | 118.87927 | 55 ft | 7 kts | 148° |
| 2026-05-04 07:57 | 31.73158 | 118.87957 | 55 ft | 8 kts | 148° |
| 2026-05-04 07:57 | 31.73110 | 118.87993 | 57 ft | 9 kts | 148° |
| 2026-05-04 07:57 | 31.73063 | 118.88003 | 55 ft | 6 kts | 210° |
| 2026-05-04 07:58 | 31.73034 | 118.87961 | 58 ft | 7 kts | 238° |
| 2026-05-04 07:58 | 31.73027 | 118.87947 | 58 ft | 0 kts | 238° |
| 2026-05-04 07:59 | 31.72982 | 118.87863 | 54 ft | 40 kts | 237° |
| 2026-05-04 07:59 | 31.72701 | 118.87338 | 58 ft | 110 kts | 238° |
| 2026-05-04 07:59 | 31.72181 | 118.86366 | 57 ft | 168 kts | 238° |
| 2026-05-04 07:59 | 31.71491 | 118.85071 | 370 ft | 195 kts | 237° |
| 2026-05-04 08:00 | 31.70791 | 118.83756 | 1381 ft | 182 kts | 237° |
| 2026-05-04 08:00 | 31.70126 | 118.82508 | 2386 ft | 177 kts | 237° |
| 2026-05-04 08:00 | 31.69513 | 118.81366 | 3195 ft | 177 kts | 236° |
| 2026-05-04 08:02 | 31.67386 | 118.69834 | 6526 ft | 249 kts | 271° |
| 2026-05-04 08:02 | 31.67404 | 118.67781 | 7135 ft | 253 kts | 272° |
| 2026-05-04 08:02 | 31.67416 | 118.65706 | 7843 ft | 255 kts | 272° |
| 2026-05-04 08:03 | 31.67416 | 118.63615 | 8512 ft | 259 kts | 272° |
| 2026-05-04 08:03 | 31.67475 | 118.61489 | 9162 ft | 261 kts | 284° |
| 2026-05-04 08:03 | 31.68241 | 118.59609 | 9841 ft | 257 kts | 316° |
| 2026-05-04 08:03 | 31.69740 | 118.58512 | 10505 ft | 257 kts | 342° |
| 2026-05-04 08:04 | 31.71517 | 118.58149 | 11078 ft | 264 kts | 358° |
| 2026-05-04 08:04 | 31.73363 | 118.58414 | 11631 ft | 272 kts | 14° |
| 2026-05-04 08:04 | 31.75084 | 118.59400 | 12155 ft | 283 kts | 38° |
| 2026-05-04 08:04 | 31.76355 | 118.61165 | 12729 ft | 290 kts | 52° |
| 2026-05-04 08:05 | 31.77523 | 118.63116 | 13254 ft | 295 kts | 51° |
| 2026-05-04 08:05 | 31.78767 | 118.65052 | 13769 ft | 298 kts | 49° |
| 2026-05-04 08:05 | 31.80100 | 118.66931 | 14271 ft | 300 kts | 41° |
| 2026-05-04 08:05 | 31.81795 | 118.68307 | 14716 ft | 296 kts | 16° |
| 2026-05-04 08:06 | 31.83832 | 118.68680 | 14854 ft | 303 kts | 350° |
| 2026-05-04 08:06 | 31.85931 | 118.68180 | 15026 ft | 314 kts | 343° |
| 2026-05-04 08:06 | 31.88095 | 118.67524 | 15206 ft | 328 kts | 343° |
| 2026-05-04 08:06 | 31.90351 | 118.66861 | 15349 ft | 341 kts | 343° |
| 2026-05-04 08:08 | 32.07788 | 118.62697 | 18229 ft | 377 kts | 346° |
| 2026-05-04 08:08 | 32.10376 | 118.62152 | 18657 ft | 379 kts | 346° |
| 2026-05-04 08:10 | 32.31643 | 118.57438 | 21984 ft | 400 kts | 345° |
| 2026-05-04 08:11 | 32.34384 | 118.56828 | 22422 ft | 402 kts | 345° |
| 2026-05-04 08:11 | 32.39921 | 118.55587 | 23209 ft | 408 kts | 345° |
| 2026-05-04 08:11 | 32.42719 | 118.54959 | 23605 ft | 411 kts | 345° |
| 2026-05-04 08:12 | 32.45532 | 118.54327 | 23944 ft | 413 kts | 345° |
| 2026-05-04 08:12 | 32.48358 | 118.53695 | 24313 ft | 414 kts | 346° |
| 2026-05-04 08:12 | 32.51262 | 118.53544 | 24592 ft | 426 kts | 2° |
| 2026-05-04 08:12 | 32.54205 | 118.54166 | 24918 ft | 432 kts | 8° |
| 2026-05-04 08:13 | 32.57140 | 118.54983 | 25269 ft | 434 kts | 9° |
| 2026-05-04 08:13 | 32.60101 | 118.55568 | 25590 ft | 429 kts | 355° |
| 2026-05-04 08:13 | 32.63013 | 118.55095 | 25871 ft | 420 kts | 337° |
| 2026-05-04 08:13 | 32.65585 | 118.53548 | 26185 ft | 412 kts | 319° |
| 2026-05-04 08:14 | 32.67559 | 118.51130 | 26491 ft | 407 kts | 301° |
| 2026-05-04 08:14 | 32.68747 | 118.48101 | 26750 ft | 407 kts | 283° |
| 2026-05-04 08:14 | 32.69021 | 118.44765 | 27017 ft | 410 kts | 265° |
| 2026-05-04 08:16 | 32.52475 | 118.37511 | 28955 ft | 476 kts | 144° |
| 2026-05-04 08:16 | 32.50107 | 118.40269 | 29346 ft | 479 kts | 132° |
| 2026-05-04 08:16 | 32.47774 | 118.43051 | 29674 ft | 474 kts | 147° |
| 2026-05-04 08:17 | 32.44918 | 118.44902 | 29949 ft | 465 kts | 166° |
| 2026-05-04 08:17 | 32.41801 | 118.45649 | 30256 ft | 453 kts | 183° |
| 2026-05-04 08:17 | 32.38718 | 118.45307 | 30568 ft | 440 kts | 200° |
| 2026-05-04 08:17 | 32.35949 | 118.43942 | 30872 ft | 426 kts | 218° |
| 2026-05-04 08:19 | 32.19382 | 118.30888 | 32118 ft | 417 kts | 211° |
| 2026-05-04 08:19 | 32.16744 | 118.29475 | 32126 ft | 416 kts | 211° |
| 2026-05-04 08:20 | 32.11474 | 118.26648 | 32118 ft | 414 kts | 212° |
| 2026-05-04 08:20 | 32.06305 | 118.23816 | 32129 ft | 406 kts | 213° |
| 2026-05-04 08:21 | 32.01210 | 118.20972 | 32136 ft | 406 kts | 213° |
| 2026-05-04 08:21 | 31.96090 | 118.18119 | 32136 ft | 408 kts | 212° |
| 2026-05-04 08:22 | 31.90946 | 118.15276 | 32124 ft | 408 kts | 213° |
| 2026-05-04 08:24 | 31.78958 | 118.00909 | 33666 ft | 366 kts | 266° |
| 2026-05-04 08:24 | 31.78821 | 117.97920 | 33893 ft | 365 kts | 268° |
| 2026-05-04 08:24 | 31.78758 | 117.94948 | 34163 ft | 362 kts | 269° |
| 2026-05-04 08:24 | 31.78732 | 117.91998 | 34378 ft | 360 kts | 269° |
| 2026-05-04 08:25 | 31.78715 | 117.89055 | 34529 ft | 360 kts | 269° |
| 2026-05-04 08:25 | 31.78693 | 117.86112 | 34656 ft | 360 kts | 269° |
| 2026-05-04 08:25 | 31.78660 | 117.83166 | 34783 ft | 360 kts | 269° |
| 2026-05-04 08:25 | 31.78617 | 117.80225 | 34939 ft | 359 kts | 268° |
| 2026-05-04 08:26 | 31.78568 | 117.77289 | 34573 ft | 363 kts | 268° |
| 2026-05-04 08:27 | 31.78116 | 117.56363 | 32154 ft | 356 kts | 267° |
| 2026-05-04 08:28 | 31.77971 | 117.50503 | 32137 ft | 362 kts | 268° |
| 2026-05-04 08:28 | 31.77829 | 117.44558 | 32138 ft | 367 kts | 268° |
| 2026-05-04 08:29 | 31.77689 | 117.38542 | 32134 ft | 369 kts | 268° |
| 2026-05-04 08:31 | 31.69254 | 117.17277 | 32131 ft | 378 kts | 237° |
| 2026-05-04 08:33 | 31.57205 | 116.98709 | 32123 ft | 371 kts | 238° |
| 2026-05-04 08:35 | 31.44523 | 116.79492 | 32124 ft | 371 kts | 238° |
| 2026-05-04 08:35 | 31.41406 | 116.74694 | 32123 ft | 370 kts | 238° |
| 2026-05-04 08:37 | 31.30443 | 116.57991 | 32105 ft | 371 kts | 237° |
| 2026-05-04 08:38 | 31.27291 | 116.53179 | 32140 ft | 375 kts | 238° |
| 2026-05-04 08:38 | 31.24156 | 116.48306 | 32137 ft | 374 kts | 238° |
| 2026-05-04 08:40 | 31.11477 | 116.29139 | 32147 ft | 374 kts | 237° |
| 2026-05-04 08:41 | 31.08300 | 116.24317 | 32157 ft | 375 kts | 238° |
| 2026-05-04 08:41 | 31.05105 | 116.19511 | 32160 ft | 375 kts | 237° |
| 2026-05-04 08:42 | 31.01925 | 116.14699 | 32159 ft | 374 kts | 237° |
| 2026-05-04 08:42 | 30.98739 | 116.09912 | 32162 ft | 374 kts | 237° |
| 2026-05-04 08:43 | 30.95556 | 116.05121 | 32158 ft | 374 kts | 237° |
| 2026-05-04 08:43 | 30.92376 | 116.00329 | 32139 ft | 374 kts | 237° |
| 2026-05-04 08:44 | 30.89209 | 115.95551 | 32156 ft | 374 kts | 237° |
| 2026-05-04 08:46 | 30.76461 | 115.76334 | 32154 ft | 378 kts | 237° |
| 2026-05-04 08:46 | 30.73266 | 115.71490 | 32131 ft | 377 kts | 237° |
| 2026-05-04 08:47 | 30.70091 | 115.66663 | 32150 ft | 375 kts | 237° |
| 2026-05-04 08:47 | 30.66917 | 115.61864 | 32149 ft | 375 kts | 237° |
| 2026-05-04 08:48 | 30.63738 | 115.57064 | 32141 ft | 377 kts | 237° |
| 2026-05-04 08:48 | 30.60532 | 115.52226 | 32146 ft | 378 kts | 238° |
| 2026-05-04 08:49 | 30.57318 | 115.47393 | 32156 ft | 378 kts | 236° |
| 2026-05-04 08:50 | 30.46117 | 115.30596 | 32144 ft | 377 kts | 237° |
| 2026-05-04 08:51 | 30.43814 | 115.25333 | 32155 ft | 371 kts | 264° |
| 2026-05-04 08:51 | 30.44117 | 115.19338 | 32141 ft | 375 kts | 274° |
| 2026-05-04 08:52 | 30.44784 | 115.13331 | 32142 ft | 376 kts | 275° |
| 2026-05-04 08:52 | 30.45495 | 115.07428 | 32142 ft | 374 kts | 275° |
| 2026-05-04 08:54 | 30.47978 | 114.83389 | 32146 ft | 377 kts | 274° |
| 2026-05-04 08:55 | 30.48596 | 114.77361 | 32144 ft | 376 kts | 274° |
| 2026-05-04 08:55 | 30.49189 | 114.71391 | 32143 ft | 375 kts | 274° |
| 2026-05-04 09:01 | 30.49671 | 114.10226 | 32138 ft | 403 kts | 206° |
| 2026-05-04 09:01 | 30.44176 | 114.08495 | 32128 ft | 409 kts | 205° |
| 2026-05-04 09:02 | 30.38903 | 114.06216 | 32140 ft | 401 kts | 210° |
| 2026-05-04 09:02 | 30.33820 | 114.03550 | 32141 ft | 401 kts | 212° |
| 2026-05-04 09:03 | 30.28782 | 114.00782 | 32123 ft | 401 kts | 212° |
| 2026-05-04 09:03 | 30.23782 | 113.98050 | 32136 ft | 400 kts | 212° |
| 2026-05-04 09:04 | 30.18729 | 113.95333 | 32140 ft | 401 kts | 212° |
| 2026-05-04 09:04 | 30.13670 | 113.92625 | 32140 ft | 401 kts | 212° |
| 2026-05-04 09:05 | 30.08614 | 113.89922 | 32140 ft | 401 kts | 212° |
| 2026-05-04 09:05 | 30.03609 | 113.87252 | 32132 ft | 400 kts | 212° |
| 2026-05-04 09:06 | 29.98559 | 113.84555 | 32139 ft | 400 kts | 212° |
| 2026-05-04 09:07 | 29.82128 | 113.73354 | 32125 ft | 385 kts | 229° |
| 2026-05-04 09:08 | 29.80187 | 113.71235 | 32126 ft | 384 kts | 230° |
| 2026-05-04 09:08 | 29.76315 | 113.67015 | 32132 ft | 383 kts | 229° |
| 2026-05-04 09:09 | 29.72437 | 113.62876 | 32138 ft | 383 kts | 229° |
| 2026-05-04 09:09 | 29.68493 | 113.58736 | 32136 ft | 384 kts | 229° |
| 2026-05-04 09:10 | 29.64536 | 113.54597 | 32140 ft | 385 kts | 229° |
| 2026-05-04 09:10 | 29.60569 | 113.50450 | 32120 ft | 385 kts | 229° |
| 2026-05-04 09:11 | 29.56636 | 113.46342 | 32122 ft | 380 kts | 229° |
| 2026-05-04 09:11 | 29.52746 | 113.42271 | 32149 ft | 378 kts | 229° |
| 2026-05-04 09:12 | 29.48829 | 113.38169 | 32135 ft | 383 kts | 229° |
| 2026-05-04 09:14 | 29.32926 | 113.21996 | 32131 ft | 383 kts | 224° |
| 2026-05-04 09:14 | 29.28525 | 113.18503 | 32129 ft | 386 kts | 223° |
| 2026-05-04 09:15 | 29.24106 | 113.15005 | 32131 ft | 385 kts | 223° |
| 2026-05-04 09:15 | 29.19717 | 113.11489 | 32133 ft | 385 kts | 223° |
| 2026-05-04 09:17 | 28.99992 | 112.95455 | 32126 ft | 388 kts | 223° |
| 2026-05-04 09:18 | 28.95578 | 112.91897 | 32126 ft | 388 kts | 223° |
| 2026-05-04 09:18 | 28.91162 | 112.88349 | 32107 ft | 387 kts | 224° |
| 2026-05-04 09:19 | 28.86783 | 112.84823 | 32124 ft | 384 kts | 224° |
| 2026-05-04 09:19 | 28.82423 | 112.81303 | 32129 ft | 384 kts | 224° |
| 2026-05-04 09:20 | 28.78056 | 112.77779 | 32139 ft | 385 kts | 224° |
| 2026-05-04 09:20 | 28.74411 | 112.74844 | 32133 ft | 387 kts | 224° |
| 2026-05-04 09:21 | 28.70007 | 112.71308 | 32122 ft | 388 kts | 224° |
| 2026-05-04 09:21 | 28.65600 | 112.67784 | 32109 ft | 386 kts | 224° |
| 2026-05-04 09:22 | 28.61215 | 112.64283 | 32121 ft | 384 kts | 224° |
| 2026-05-04 09:22 | 28.56130 | 112.60218 | 32123 ft | 384 kts | 224° |
| 2026-05-04 09:23 | 28.52492 | 112.57307 | 32125 ft | 385 kts | 224° |
| 2026-05-04 09:23 | 28.48107 | 112.53802 | 32125 ft | 385 kts | 224° |
| 2026-05-04 09:25 | 28.30562 | 112.39827 | 32125 ft | 385 kts | 224° |
| 2026-05-04 09:26 | 28.26170 | 112.36332 | 32128 ft | 386 kts | 224° |
| 2026-05-04 09:26 | 28.21775 | 112.32840 | 32133 ft | 386 kts | 224° |
| 2026-05-04 09:27 | 28.17377 | 112.29349 | 32115 ft | 386 kts | 224° |
| 2026-05-04 09:27 | 28.13022 | 112.25871 | 32125 ft | 385 kts | 224° |
| 2026-05-04 09:28 | 28.08623 | 112.22322 | 32132 ft | 386 kts | 224° |
| 2026-05-04 09:28 | 28.04194 | 112.18917 | 32130 ft | 390 kts | 221° |
| 2026-05-04 09:29 | 27.99528 | 112.15747 | 32127 ft | 391 kts | 220° |
| 2026-05-04 09:29 | 27.94856 | 112.12596 | 32111 ft | 390 kts | 220° |
| 2026-05-04 09:30 | 27.90227 | 112.09382 | 32119 ft | 390 kts | 221° |
| 2026-05-04 09:30 | 27.85620 | 112.06137 | 32134 ft | 389 kts | 221° |
| 2026-05-04 09:31 | 27.81017 | 112.02902 | 32131 ft | 390 kts | 221° |
| 2026-05-04 09:31 | 27.76398 | 111.99680 | 32125 ft | 391 kts | 221° |
| 2026-05-04 09:32 | 27.71773 | 111.96449 | 32101 ft | 391 kts | 221° |
| 2026-05-04 09:34 | 27.53236 | 111.83531 | 32131 ft | 393 kts | 220° |
| 2026-05-04 09:34 | 27.48590 | 111.80288 | 32133 ft | 393 kts | 220° |
| 2026-05-04 09:35 | 27.43932 | 111.77072 | 32116 ft | 394 kts | 220° |
| 2026-05-04 09:35 | 27.39241 | 111.73825 | 32127 ft | 397 kts | 220° |
| 2026-05-04 09:37 | 27.20500 | 111.60855 | 32113 ft | 394 kts | 219° |
| 2026-05-04 09:38 | 27.15787 | 111.57614 | 32130 ft | 400 kts | 219° |
| 2026-05-04 09:38 | 27.11003 | 111.54469 | 32141 ft | 402 kts | 218° |
| 2026-05-04 09:39 | 27.06174 | 111.51325 | 32135 ft | 400 kts | 218° |
| 2026-05-04 09:39 | 27.01380 | 111.48180 | 32136 ft | 398 kts | 218° |
| 2026-05-04 09:40 | 26.96595 | 111.45032 | 32100 ft | 399 kts | 218° |
| 2026-05-04 09:40 | 26.91800 | 111.41869 | 32128 ft | 400 kts | 219° |
| 2026-05-04 09:42 | 26.73284 | 111.28256 | 32153 ft | 399 kts | 221° |
| 2026-05-04 09:43 | 26.68663 | 111.24810 | 32170 ft | 399 kts | 221° |
| 2026-05-04 09:43 | 26.63995 | 111.21465 | 32140 ft | 397 kts | 220° |
| 2026-05-04 09:44 | 26.59388 | 111.18144 | 32201 ft | 399 kts | 220° |
| 2026-05-04 09:46 | 26.40423 | 111.05116 | 32140 ft | 401 kts | 220° |
| 2026-05-04 09:46 | 26.35672 | 111.01874 | 32145 ft | 399 kts | 220° |
| 2026-05-04 09:47 | 26.30935 | 110.98651 | 32171 ft | 399 kts | 220° |
| 2026-05-04 09:49 | 26.11989 | 110.85774 | 32150 ft | 402 kts | 219° |
| 2026-05-04 09:51 | 25.95099 | 110.74294 | 30883 ft | 432 kts | 218° |
| 2026-05-04 09:51 | 25.92538 | 110.72604 | 30384 ft | 421 kts | 218° |
| 2026-05-04 09:51 | 25.90077 | 110.70987 | 29644 ft | 402 kts | 218° |
| 2026-05-04 09:51 | 25.87710 | 110.69411 | 28544 ft | 393 kts | 219° |
| 2026-05-04 09:52 | 25.85390 | 110.67817 | 27295 ft | 391 kts | 219° |
| 2026-05-04 09:52 | 25.83108 | 110.66251 | 26552 ft | 379 kts | 218° |
| 2026-05-04 09:52 | 25.80897 | 110.64763 | 25947 ft | 367 kts | 218° |
| 2026-05-04 09:52 | 25.78720 | 110.63257 | 25391 ft | 373 kts | 219° |
| 2026-05-04 09:53 | 25.76400 | 110.61818 | 24822 ft | 394 kts | 207° |
| 2026-05-04 09:53 | 25.73663 | 110.61180 | 24248 ft | 413 kts | 188° |
| 2026-05-04 09:53 | 25.70768 | 110.61586 | 23605 ft | 428 kts | 171° |
| 2026-05-04 09:53 | 25.67928 | 110.62620 | 22841 ft | 430 kts | 167° |
| 2026-05-04 09:54 | 25.65118 | 110.63731 | 22075 ft | 427 kts | 167° |
| 2026-05-04 09:54 | 25.62317 | 110.64799 | 21381 ft | 423 kts | 167° |
| 2026-05-04 09:54 | 25.59508 | 110.65650 | 20693 ft | 412 kts | 179° |
| 2026-05-04 09:54 | 25.56731 | 110.65567 | 20107 ft | 391 kts | 199° |
| 2026-05-04 09:55 | 25.54271 | 110.64501 | 19435 ft | 375 kts | 217° |
| 2026-05-04 09:55 | 25.52151 | 110.62864 | 18735 ft | 370 kts | 222° |
| 2026-05-04 09:55 | 25.50134 | 110.61107 | 18040 ft | 367 kts | 223° |
| 2026-05-04 09:55 | 25.48201 | 110.59354 | 17327 ft | 351 kts | 223° |
| 2026-05-04 09:56 | 25.46368 | 110.57663 | 16717 ft | 335 kts | 224° |
| 2026-05-04 09:56 | 25.44615 | 110.56052 | 16152 ft | 321 kts | 224° |
| 2026-05-04 09:56 | 25.42916 | 110.54505 | 15641 ft | 317 kts | 224° |
| 2026-05-04 09:56 | 25.41142 | 110.52893 | 15155 ft | 342 kts | 223° |
| 2026-05-04 09:57 | 25.39291 | 110.51223 | 14647 ft | 342 kts | 223° |
| 2026-05-04 09:57 | 25.37460 | 110.49598 | 14091 ft | 330 kts | 221° |
| 2026-05-04 09:57 | 25.35685 | 110.48036 | 13506 ft | 325 kts | 221° |
| 2026-05-04 09:57 | 25.33925 | 110.46489 | 12915 ft | 323 kts | 221° |
| 2026-05-04 09:58 | 25.32170 | 110.44952 | 12334 ft | 323 kts | 221° |
| 2026-05-04 09:58 | 25.30421 | 110.43431 | 11845 ft | 325 kts | 220° |
| 2026-05-04 09:58 | 25.28638 | 110.41888 | 11330 ft | 326 kts | 221° |
| 2026-05-04 10:00 | 25.17640 | 110.31892 | 9595 ft | 263 kts | 243° |
| 2026-05-04 10:00 | 25.17206 | 110.29978 | 9472 ft | 260 kts | 270° |
| 2026-05-04 10:02 | 25.18439 | 110.15786 | 8943 ft | 266 kts | 275° |
| 2026-05-04 10:04 | 25.21807 | 110.02832 | 8443 ft | 269 kts | 338° |
| 2026-05-04 10:04 | 25.23571 | 110.02147 | 8367 ft | 270 kts | 340° |
| 2026-05-04 10:04 | 25.25362 | 110.01499 | 8292 ft | 270 kts | 341° |
| 2026-05-04 10:04 | 25.27159 | 110.00890 | 8216 ft | 271 kts | 342° |
| 2026-05-04 10:05 | 25.28946 | 110.00313 | 8144 ft | 271 kts | 343° |
| 2026-05-04 10:05 | 25.30750 | 109.99717 | 8140 ft | 271 kts | 341° |
| 2026-05-04 10:05 | 25.32529 | 109.99069 | 8138 ft | 269 kts | 341° |
| 2026-05-04 10:05 | 25.34331 | 109.98511 | 8159 ft | 267 kts | 344° |
| 2026-05-04 10:06 | 25.36125 | 109.97961 | 8094 ft | 268 kts | 340° |
| 2026-05-04 10:06 | 25.37886 | 109.97273 | 8059 ft | 268 kts | 340° |
| 2026-05-04 10:06 | 25.39685 | 109.96785 | 7994 ft | 266 kts | 344° |
| 2026-05-04 10:08 | 25.49404 | 109.93039 | 7905 ft | 230 kts | 345° |
| 2026-05-04 10:08 | 25.50994 | 109.93027 | 7922 ft | 234 kts | 19° |
| 2026-05-04 10:08 | 25.52309 | 109.94041 | 7937 ft | 233 kts | 54° |
| 2026-05-04 10:08 | 25.52874 | 109.95700 | 7921 ft | 236 kts | 88° |
| 2026-05-04 10:09 | 25.52527 | 109.97450 | 7914 ft | 236 kts | 119° |
| 2026-05-04 10:09 | 25.51739 | 109.99024 | 7911 ft | 238 kts | 119° |
| 2026-05-04 10:09 | 25.51028 | 110.00743 | 7743 ft | 247 kts | 111° |
| 2026-05-04 10:09 | 25.50493 | 110.02581 | 7529 ft | 255 kts | 106° |
| 2026-05-04 10:10 | 25.49771 | 110.04391 | 7285 ft | 262 kts | 129° |
| 2026-05-04 10:10 | 25.48312 | 110.05577 | 7064 ft | 266 kts | 160° |
| 2026-05-04 10:10 | 25.46515 | 110.05991 | 6825 ft | 263 kts | 174° |
| 2026-05-04 10:10 | 25.44684 | 110.06085 | 6451 ft | 267 kts | 179° |
| 2026-05-04 10:11 | 25.42801 | 110.06020 | 5838 ft | 280 kts | 183° |
| 2026-05-04 10:11 | 25.40832 | 110.05854 | 5228 ft | 284 kts | 184° |
| 2026-05-04 10:11 | 25.38936 | 110.05643 | 4618 ft | 264 kts | 185° |
| 2026-05-04 10:11 | 25.37189 | 110.05432 | 4280 ft | 240 kts | 185° |
| 2026-05-04 10:12 | 25.35605 | 110.05239 | 4132 ft | 220 kts | 185° |
| 2026-05-04 10:12 | 25.34068 | 110.05067 | 3721 ft | 226 kts | 184° |
| 2026-05-04 10:12 | 25.32489 | 110.04908 | 3048 ft | 227 kts | 184° |
| 2026-05-04 10:12 | 25.30938 | 110.04759 | 2349 ft | 222 kts | 184° |
| 2026-05-04 10:13 | 25.29419 | 110.04627 | 1679 ft | 216 kts | 184° |
| 2026-05-04 10:13 | 25.28006 | 110.04521 | 1442 ft | 193 kts | 185° |
| 2026-05-04 10:13 | 25.26717 | 110.04398 | 1132 ft | 180 kts | 184° |
| 2026-05-04 10:13 | 25.25507 | 110.04300 | 921 ft | 170 kts | 182° |
| 2026-05-04 10:14 | 25.24355 | 110.04205 | 744 ft | 164 kts | 188° |
| 2026-05-04 10:14 | 25.23232 | 110.04066 | 560 ft | 160 kts | 186° |
| 2026-05-04 10:16 | 25.15110 | 110.03289 | 1701 ft | 161 kts | 182° |
| 2026-05-04 10:16 | 25.14028 | 110.03256 | 1802 ft | 153 kts | 179° |
| 2026-05-04 10:16 | 25.12935 | 110.03246 | 2097 ft | 159 kts | 180° |
| 2026-05-04 10:16 | 25.11823 | 110.03208 | 2545 ft | 158 kts | 181° |
| 2026-05-04 10:17 | 25.10738 | 110.03153 | 3056 ft | 160 kts | 181° |
| 2026-05-04 10:17 | 25.09617 | 110.03082 | 3493 ft | 158 kts | 182° |
| 2026-05-04 10:19 | 25.02265 | 110.06427 | 5134 ft | 221 kts | 92° |
| 2026-05-04 10:19 | 25.02455 | 110.08069 | 5060 ft | 220 kts | 68° |
| 2026-05-04 10:19 | 25.03263 | 110.09492 | 5023 ft | 220 kts | 44° |
| 2026-05-04 10:19 | 25.04533 | 110.10401 | 4993 ft | 219 kts | 20° |
| 2026-05-04 10:20 | 25.06030 | 110.10569 | 4990 ft | 221 kts | 350° |
| 2026-05-04 10:20 | 25.07515 | 110.10108 | 4971 ft | 222 kts | 342° |
| 2026-05-04 10:20 | 25.08964 | 110.09499 | 4967 ft | 223 kts | 339° |
| 2026-05-04 10:20 | 25.10389 | 110.08810 | 4974 ft | 224 kts | 336° |
| 2026-05-04 10:21 | 25.11787 | 110.08058 | 4973 ft | 223 kts | 334° |
| 2026-05-04 10:21 | 25.13172 | 110.07274 | 4972 ft | 224 kts | 333° |
| 2026-05-04 10:21 | 25.14556 | 110.06484 | 4976 ft | 224 kts | 334° |
| 2026-05-04 10:21 | 25.15944 | 110.05696 | 4966 ft | 224 kts | 334° |
| 2026-05-04 10:22 | 25.18722 | 110.04142 | 4970 ft | 224 kts | 334° |
| 2026-05-04 10:22 | 25.20139 | 110.03446 | 4971 ft | 222 kts | 341° |
| 2026-05-04 10:22 | 25.21609 | 110.02898 | 4970 ft | 224 kts | 343° |
| 2026-05-04 10:23 | 25.23095 | 110.02394 | 4970 ft | 223 kts | 344° |
| 2026-05-04 10:23 | 25.24581 | 110.01893 | 4973 ft | 223 kts | 344° |
| 2026-05-04 10:25 | 25.34961 | 109.98270 | 5006 ft | 225 kts | 343° |
| 2026-05-04 10:25 | 25.36437 | 109.97730 | 5021 ft | 219 kts | 343° |
| 2026-05-04 10:25 | 25.37899 | 109.97213 | 5020 ft | 223 kts | 344° |
| 2026-05-04 10:25 | 25.39357 | 109.96697 | 5082 ft | 218 kts | 343° |
| 2026-05-04 10:26 | 25.40804 | 109.96168 | 5048 ft | 220 kts | 343° |
| 2026-05-04 10:26 | 25.42265 | 109.95642 | 5018 ft | 222 kts | 343° |
| 2026-05-04 10:26 | 25.43736 | 109.95110 | 5005 ft | 222 kts | 343° |
| 2026-05-04 10:26 | 25.45200 | 109.94590 | 4999 ft | 221 kts | 343° |
| 2026-05-04 10:27 | 25.46659 | 109.94071 | 5004 ft | 219 kts | 343° |
| 2026-05-04 10:27 | 25.48116 | 109.93550 | 4993 ft | 221 kts | 342° |
| 2026-05-04 10:27 | 25.49509 | 109.93052 | 4988 ft | 221 kts | 346° |
| 2026-05-04 10:27 | 25.51007 | 109.93107 | 4982 ft | 217 kts | 21° |
| 2026-05-04 10:28 | 25.52156 | 109.94121 | 4979 ft | 212 kts | 59° |
| 2026-05-04 10:28 | 25.52498 | 109.95643 | 5016 ft | 203 kts | 97° |
| 2026-05-04 10:28 | 25.52075 | 109.97057 | 5049 ft | 189 kts | 114° |
| 2026-05-04 10:28 | 25.51569 | 109.98394 | 5023 ft | 187 kts | 112° |
| 2026-05-04 10:29 | 25.51134 | 109.99741 | 4997 ft | 185 kts | 109° |
| 2026-05-04 10:29 | 25.50773 | 110.01090 | 5011 ft | 178 kts | 106° |
| 2026-05-04 10:29 | 25.50498 | 110.02306 | 4948 ft | 149 kts | 104° |
| 2026-05-04 10:29 | 25.50277 | 110.03399 | 4791 ft | 143 kts | 103° |
| 2026-05-04 10:30 | 25.50092 | 110.04468 | 4743 ft | 141 kts | 101° |
| 2026-05-04 10:30 | 25.49923 | 110.05528 | 4749 ft | 139 kts | 105° |
| 2026-05-04 10:30 | 25.49384 | 110.06367 | 4708 ft | 138 kts | 160° |
| 2026-05-04 10:30 | 25.48448 | 110.06349 | 4807 ft | 133 kts | 184° |
| 2026-05-04 10:31 | 25.47505 | 110.06327 | 4876 ft | 138 kts | 178° |
| 2026-05-04 10:31 | 25.46538 | 110.06337 | 4886 ft | 139 kts | 181° |
| 2026-05-04 10:32 | 25.40529 | 110.05745 | 3878 ft | 142 kts | 183° |
| 2026-05-04 10:33 | 25.39544 | 110.05652 | 3683 ft | 142 kts | 183° |
| 2026-05-04 10:33 | 25.38563 | 110.05556 | 3495 ft | 141 kts | 184° |
| 2026-05-04 10:33 | 25.37585 | 110.05458 | 3321 ft | 141 kts | 182° |
| 2026-05-04 10:33 | 25.36612 | 110.05357 | 3139 ft | 140 kts | 183° |
| 2026-05-04 10:34 | 25.35637 | 110.05266 | 2944 ft | 140 kts | 183° |
| 2026-05-04 10:34 | 25.34668 | 110.05183 | 2743 ft | 139 kts | 183° |
| 2026-05-04 10:34 | 25.33712 | 110.05085 | 2541 ft | 137 kts | 184° |
| 2026-05-04 10:34 | 25.32763 | 110.04995 | 2375 ft | 136 kts | 183° |
| 2026-05-04 10:35 | 25.31828 | 110.04906 | 2222 ft | 134 kts | 184° |
| 2026-05-04 10:35 | 25.30901 | 110.04814 | 2015 ft | 132 kts | 185° |
| 2026-05-04 10:35 | 25.29992 | 110.04729 | 1824 ft | 131 kts | 186° |
| 2026-05-04 10:35 | 25.29079 | 110.04642 | 1660 ft | 131 kts | 187° |
| 2026-05-04 10:36 | 25.28160 | 110.04544 | 1470 ft | 136 kts | 186° |
| 2026-05-04 10:36 | 25.27219 | 110.04447 | 1310 ft | 137 kts | 186° |
| 2026-05-04 10:36 | 25.26275 | 110.04346 | 1086 ft | 137 kts | 184° |
| 2026-05-04 10:36 | 25.25324 | 110.04251 | 875 ft | 137 kts | 184° |
| 2026-05-04 10:37 | 25.24385 | 110.04181 | 764 ft | 133 kts | 184° |
| 2026-05-04 10:37 | 25.23460 | 110.04095 | 613 ft | 134 kts | 184° |
| 2026-05-04 10:37 | 25.22571 | 110.04003 | 560 ft | 115 kts | 186° |
| 2026-05-04 10:37 | 25.21949 | 110.03943 | 550 ft | 66 kts | 185° |
| 2026-05-04 10:39 | 25.21757 | 110.04115 | 557 ft | 6 kts | 5° |
| 2026-05-04 10:39 | 25.21806 | 110.04120 | 556 ft | 8 kts | 5° |
| 2026-05-04 10:39 | 25.21869 | 110.04126 | 554 ft | 10 kts | 5° |
| 2026-05-04 10:40 | 25.21943 | 110.04133 | 561 ft | 11 kts | 5° |
| 2026-05-04 10:40 | 25.21997 | 110.04138 | 556 ft | 6 kts | 5° |
| 2026-05-04 10:40 | 25.22046 | 110.04143 | 560 ft | 8 kts | 5° |
| 2026-05-04 10:40 | 25.22108 | 110.04149 | 558 ft | 10 kts | 6° |
| 2026-05-04 10:41 | 25.22153 | 110.04197 | 558 ft | 10 kts | 82° |
| 2026-05-04 10:41 | 25.22148 | 110.04277 | 552 ft | 11 kts | 96° |
| 2026-05-04 10:41 | 25.22137 | 110.04365 | 552 ft | 12 kts | 112° |
| 2026-05-04 10:41 | 25.22066 | 110.04407 | 559 ft | 13 kts | 180° |
| 2026-05-04 10:42 | 25.22010 | 110.04401 | 556 ft | 0 kts | 186° |
| 2026-05-04 10:42 | 25.22002 | 110.04400 | 555 ft | 2 kts | 186° |
| 2026-05-04 10:42 | 25.21979 | 110.04398 | 560 ft | 4 kts | 186° |
| 2026-05-04 10:42 | 25.21946 | 110.04394 | 558 ft | 5 kts | 186° |
| 2026-05-04 10:43 | 25.21908 | 110.04390 | 558 ft | 6 kts | 184° |
| 2026-05-04 10:44 | 25.21868 | 110.04441 | 552 ft | 0 kts | 94° |
| 2026-05-04 10:45 | 25.22778 | 110.04023 | 566 ft | 125 kts | 184° |
| 2026-05-04 10:45 | 25.22713 | 110.04017 | 559 ft | 120 kts | 184° |
| 2026-05-04 10:46 | 25.22782 | 110.04024 | 565 ft | 125 kts | 184° |
| 2026-05-04 10:46 | 25.22732 | 110.04019 | 561 ft | 122 kts | 184° |
| 2026-05-04 10:49 | 25.22667 | 110.04013 | 561 ft | 119 kts | 184° |
| 2026-05-04 10:51 | 25.24535 | 110.04193 | 783 ft | 133 kts | 182° |
| 2026-05-04 10:52 | 25.24066 | 110.04157 | 715 ft | 130 kts | 183° |